This is the latest recevied weather packets stored in our database for station/object DG2YCM-10. If no packets are shown the sender has not sent any weather packets the latest 10 day(s).
| Time | Temp. | Humidity | Pressure | Rain* | Wind** | Luminosity | Snow |
|---|---|---|---|---|---|---|---|
| 1777493033 | 15.56° C | 30% | 1016.6 hPa | - | - | - | - |
| 1777489493 | 16.67° C | 29% | 1015.8 hPa | - | - | - | - |
| 1777485953 | 18.33° C | 25% | 1015.4 hPa | - | - | - | - |
| 1777482412 | 19.44° C | 22% | 1015.2 hPa | - | - | - | - |
| 1777478872 | 21.11° C | 22% | 1015 hPa | - | - | - | - |
| 1777475332 | 21.67° C | 22% | 1015 hPa | - | - | - | - |
| 1777471792 | 22.22° C | 23% | 1015.2 hPa | - | - | - | - |
| 1777468251 | 22.22° C | 25% | 1015.3 hPa | - | - | - | - |
| 1777464711 | 22.22° C | 25% | 1015.5 hPa | - | - | - | - |
| 1777461171 | 21.67° C | 29% | 1015.5 hPa | - | - | - | - |
| 1777457631 | 20.56° C | 30% | 1015.6 hPa | - | - | - | - |
| 1777454091 | 19.44° C | 30% | 1015.5 hPa | - | - | - | - |
| 1777450550 | 17.22° C | 32% | 1015.3 hPa | - | - | - | - |
| 1777447010 | 15° C | 33% | 1015.1 hPa | - | - | - | - |
| 1777443470 | 12.78° C | 36% | 1015 hPa | - | - | - | - |
| 1777439930 | 11.11° C | 40% | 1014.7 hPa | - | - | - | - |
| 1777436390 | 10.56° C | 42% | 1014.1 hPa | - | - | - | - |
| 1777432850 | 11.11° C | 44% | 1014 hPa | - | - | - | - |
| 1777429310 | 11.67° C | 44% | 1013.6 hPa | - | - | - | - |
| 1777425770 | 12.78° C | 43% | 1013.5 hPa | - | - | - | - |
| 1777422229 | 13.33° C | 42% | 1013.4 hPa | - | - | - | - |
| 1777418689 | 13.89° C | 42% | 1013.4 hPa | - | - | - | - |
| 1777415149 | 15° C | 41% | 1013 hPa | - | - | - | - |
| 1777411608 | 16.11° C | 39% | 1012.7 hPa | - | - | - | - |
| 1777408068 | 17.22° C | 39% | 1012.3 hPa | - | - | - | - |
* Rain since midnight (hover to see other rain measurements)
** Current wind speed in m/s (hover to see current wind gust speed)